sensor_id;sensor_type;location;lat;lon;timestamp;temperature;humidity
16767;DHT22;8501;49.926;8.404;2024-01-30T00:01:01;2.80;99.90
16767;DHT22;8501;49.926;8.404;2024-01-30T00:03:27;2.80;99.90
16767;DHT22;8501;49.926;8.404;2024-01-30T00:05:55;2.80;99.90
16767;DHT22;8501;49.926;8.404;2024-01-30T00:08:20;2.80;99.90
16767;DHT22;8501;49.926;8.404;2024-01-30T00:10:46;2.80;99.90
16767;DHT22;8501;49.926;8.404;2024-01-30T00:13:11;2.70;99.90
16767;DHT22;8501;49.926;8.404;2024-01-30T00:15:39;2.70;99.90
16767;DHT22;8501;49.926;8.404;2024-01-30T00:18:04;2.70;99.90
16767;DHT22;8501;49.926;8.404;2024-01-30T00:20:30;2.70;99.90
16767;DHT22;8501;49.926;8.404;2024-01-30T00:22:55;2.80;99.90
16767;DHT22;8501;49.926;8.404;2024-01-30T00:25:21;2.80;99.90
16767;DHT22;8501;49.926;8.404;2024-01-30T00:27:46;2.80;99.90
16767;DHT22;8501;49.926;8.404;2024-01-30T00:30:12;2.70;99.90
16767;DHT22;8501;49.926;8.404;2024-01-30T00:32:38;2.70;99.90
16767;DHT22;8501;49.926;8.404;2024-01-30T00:35:04;2.70;99.90
16767;DHT22;8501;49.926;8.404;2024-01-30T00:37:29;2.80;99.90
16767;DHT22;8501;49.926;8.404;2024-01-30T00:39:56;2.80;99.90
16767;DHT22;8501;49.926;8.404;2024-01-30T00:42:22;2.80;99.90
16767;DHT22;8501;49.926;8.404;2024-01-30T00:44:49;2.90;99.90
16767;DHT22;8501;49.926;8.404;2024-01-30T00:47:14;2.80;99.90
16767;DHT22;8501;49.926;8.404;2024-01-30T00:49:40;2.70;99.90
16767;DHT22;8501;49.926;8.404;2024-01-30T00:52:06;2.60;99.90
16767;DHT22;8501;49.926;8.404;2024-01-30T00:54:31;2.60;99.90
16767;DHT22;8501;49.926;8.404;2024-01-30T00:56:57;2.70;99.90
16767;DHT22;8501;49.926;8.404;2024-01-30T00:59:22;2.60;99.90
16767;DHT22;8501;49.926;8.404;2024-01-30T01:01:48;2.50;99.90
16767;DHT22;8501;49.926;8.404;2024-01-30T01:04:13;2.50;99.90
16767;DHT22;8501;49.926;8.404;2024-01-30T01:06:39;2.40;99.90
16767;DHT22;8501;49.926;8.404;2024-01-30T01:09:05;2.30;99.90
16767;DHT22;8501;49.926;8.404;2024-01-30T01:11:30;2.20;99.90
16767;DHT22;8501;49.926;8.404;2024-01-30T01:13:56;2.20;99.90
16767;DHT22;8501;49.926;8.404;2024-01-30T01:16:22;2.20;99.90
16767;DHT22;8501;49.926;8.404;2024-01-30T01:18:47;2.10;99.90
16767;DHT22;8501;49.926;8.404;2024-01-30T01:21:13;2.10;99.90
16767;DHT22;8501;49.926;8.404;2024-01-30T01:23:38;2.10;99.90
16767;DHT22;8501;49.926;8.404;2024-01-30T01:26:04;2.10;99.90
16767;DHT22;8501;49.926;8.404;2024-01-30T01:28:30;2.10;99.90
16767;DHT22;8501;49.926;8.404;2024-01-30T01:30:56;2.10;99.90
16767;DHT22;8501;49.926;8.404;2024-01-30T01:33:24;2.20;99.90
16767;DHT22;8501;49.926;8.404;2024-01-30T01:35:50;2.10;99.90
16767;DHT22;8501;49.926;8.404;2024-01-30T01:38:15;2.10;99.90
16767;DHT22;8501;49.926;8.404;2024-01-30T01:40:41;2.00;99.90
16767;DHT22;8501;49.926;8.404;2024-01-30T01:43:06;2.00;99.90
16767;DHT22;8501;49.926;8.404;2024-01-30T01:45:32;2.00;99.90
16767;DHT22;8501;49.926;8.404;2024-01-30T01:47:57;1.90;99.90
16767;DHT22;8501;49.926;8.404;2024-01-30T01:50:23;2.00;99.90
16767;DHT22;8501;49.926;8.404;2024-01-30T01:52:50;1.90;99.90
16767;DHT22;8501;49.926;8.404;2024-01-30T01:55:16;1.90;99.90
16767;DHT22;8501;49.926;8.404;2024-01-30T01:57:47;2.00;99.90
16767;DHT22;8501;49.926;8.404;2024-01-30T02:00:13;1.90;99.90
16767;DHT22;8501;49.926;8.404;2024-01-30T02:02:39;2.00;99.90
16767;DHT22;8501;49.926;8.404;2024-01-30T02:05:05;2.00;99.90
16767;DHT22;8501;49.926;8.404;2024-01-30T02:07:31;2.00;99.90
16767;DHT22;8501;49.926;8.404;2024-01-30T02:09:56;2.00;99.90
16767;DHT22;8501;49.926;8.404;2024-01-30T02:12:22;2.00;99.90
16767;DHT22;8501;49.926;8.404;2024-01-30T02:14:48;2.00;99.90
16767;DHT22;8501;49.926;8.404;2024-01-30T02:17:15;1.90;99.90
16767;DHT22;8501;49.926;8.404;2024-01-30T02:19:41;1.80;99.90
16767;DHT22;8501;49.926;8.404;2024-01-30T02:22:07;1.80;99.90
16767;DHT22;8501;49.926;8.404;2024-01-30T02:24:32;1.90;99.90
16767;DHT22;8501;49.926;8.404;2024-01-30T02:26:58;1.90;99.90
16767;DHT22;8501;49.926;8.404;2024-01-30T02:29:24;1.90;99.90
16767;DHT22;8501;49.926;8.404;2024-01-30T02:31:49;1.90;99.90
16767;DHT22;8501;49.926;8.404;2024-01-30T02:34:15;1.80;99.90
16767;DHT22;8501;49.926;8.404;2024-01-30T02:36:43;1.80;99.90
16767;DHT22;8501;49.926;8.404;2024-01-30T02:39:09;1.70;99.90
16767;DHT22;8501;49.926;8.404;2024-01-30T02:41:35;1.80;99.90
16767;DHT22;8501;49.926;8.404;2024-01-30T02:44:04;1.80;99.90
16767;DHT22;8501;49.926;8.404;2024-01-30T02:46:29;1.80;99.90
16767;DHT22;8501;49.926;8.404;2024-01-30T02:48:55;1.70;99.90
16767;DHT22;8501;49.926;8.404;2024-01-30T02:51:21;1.80;99.90
16767;DHT22;8501;49.926;8.404;2024-01-30T02:53:46;1.80;99.90
16767;DHT22;8501;49.926;8.404;2024-01-30T02:56:12;1.70;99.90
16767;DHT22;8501;49.926;8.404;2024-01-30T02:58:39;1.60;99.90
16767;DHT22;8501;49.926;8.404;2024-01-30T03:01:05;1.50;99.90
16767;DHT22;8501;49.926;8.404;2024-01-30T03:03:30;1.40;99.90
16767;DHT22;8501;49.926;8.404;2024-01-30T03:05:56;1.40;99.90
16767;DHT22;8501;49.926;8.404;2024-01-30T03:08:21;1.40;99.90
16767;DHT22;8501;49.926;8.404;2024-01-30T03:10:47;1.40;99.90
16767;DHT22;8501;49.926;8.404;2024-01-30T03:13:12;1.50;99.90
16767;DHT22;8501;49.926;8.404;2024-01-30T03:15:38;1.50;99.90
16767;DHT22;8501;49.926;8.404;2024-01-30T03:18:03;1.60;99.90
16767;DHT22;8501;49.926;8.404;2024-01-30T03:20:29;1.60;99.90
16767;DHT22;8501;49.926;8.404;2024-01-30T03:22:55;1.60;99.90
16767;DHT22;8501;49.926;8.404;2024-01-30T03:25:21;1.50;99.90
16767;DHT22;8501;49.926;8.404;2024-01-30T03:27:46;1.50;99.90
16767;DHT22;8501;49.926;8.404;2024-01-30T03:30:12;1.50;99.90
16767;DHT22;8501;49.926;8.404;2024-01-30T03:32:38;1.50;99.90
16767;DHT22;8501;49.926;8.404;2024-01-30T03:35:03;1.50;99.90
16767;DHT22;8501;49.926;8.404;2024-01-30T03:37:29;1.50;99.90
16767;DHT22;8501;49.926;8.404;2024-01-30T03:39:55;1.50;99.90
16767;DHT22;8501;49.926;8.404;2024-01-30T03:42:20;1.60;99.90
16767;DHT22;8501;49.926;8.404;2024-01-30T03:44:47;1.60;99.90
16767;DHT22;8501;49.926;8.404;2024-01-30T03:47:13;1.50;99.90
16767;DHT22;8501;49.926;8.404;2024-01-30T03:49:39;1.50;99.90
16767;DHT22;8501;49.926;8.404;2024-01-30T03:52:04;1.40;99.90
16767;DHT22;8501;49.926;8.404;2024-01-30T03:54:30;1.40;99.90
16767;DHT22;8501;49.926;8.404;2024-01-30T03:56:55;1.40;99.90
16767;DHT22;8501;49.926;8.404;2024-01-30T03:59:21;1.30;99.90
16767;DHT22;8501;49.926;8.404;2024-01-30T04:01:50;1.30;99.90
16767;DHT22;8501;49.926;8.404;2024-01-30T04:04:17;1.30;99.90
16767;DHT22;8501;49.926;8.404;2024-01-30T04:06:44;1.40;99.90
16767;DHT22;8501;49.926;8.404;2024-01-30T04:09:09;1.30;99.90
16767;DHT22;8501;49.926;8.404;2024-01-30T04:11:35;1.30;99.90
16767;DHT22;8501;49.926;8.404;2024-01-30T04:14:00;1.30;99.90
16767;DHT22;8501;49.926;8.404;2024-01-30T04:16:26;1.20;99.90
16767;DHT22;8501;49.926;8.404;2024-01-30T04:18:52;1.20;99.90
16767;DHT22;8501;49.926;8.404;2024-01-30T04:21:18;1.20;99.90
16767;DHT22;8501;49.926;8.404;2024-01-30T04:23:43;1.30;99.90
16767;DHT22;8501;49.926;8.404;2024-01-30T04:26:09;1.20;99.90
16767;DHT22;8501;49.926;8.404;2024-01-30T04:28:34;1.30;99.90
16767;DHT22;8501;49.926;8.404;2024-01-30T04:30:59;1.30;99.90
16767;DHT22;8501;49.926;8.404;2024-01-30T04:33:25;1.30;99.90
16767;DHT22;8501;49.926;8.404;2024-01-30T04:35:51;1.30;99.90
16767;DHT22;8501;49.926;8.404;2024-01-30T04:38:17;1.10;99.90
16767;DHT22;8501;49.926;8.404;2024-01-30T04:40:42;1.10;99.90
16767;DHT22;8501;49.926;8.404;2024-01-30T04:43:08;1.10;99.90
16767;DHT22;8501;49.926;8.404;2024-01-30T04:45:34;1.10;99.90
16767;DHT22;8501;49.926;8.404;2024-01-30T04:47:59;1.00;99.90
16767;DHT22;8501;49.926;8.404;2024-01-30T04:50:25;1.00;99.90
16767;DHT22;8501;49.926;8.404;2024-01-30T04:52:52;1.00;99.90
16767;DHT22;8501;49.926;8.404;2024-01-30T04:55:17;0.90;99.90
16767;DHT22;8501;49.926;8.404;2024-01-30T04:57:43;1.00;99.90
16767;DHT22;8501;49.926;8.404;2024-01-30T05:00:09;0.90;99.90
16767;DHT22;8501;49.926;8.404;2024-01-30T05:02:35;0.90;99.90
16767;DHT22;8501;49.926;8.404;2024-01-30T05:05:00;0.90;99.90
16767;DHT22;8501;49.926;8.404;2024-01-30T05:07:26;1.00;99.90
16767;DHT22;8501;49.926;8.404;2024-01-30T05:09:51;1.00;99.90
16767;DHT22;8501;49.926;8.404;2024-01-30T05:12:17;1.10;99.90
16767;DHT22;8501;49.926;8.404;2024-01-30T05:14:43;1.00;99.90
16767;DHT22;8501;49.926;8.404;2024-01-30T05:17:08;0.90;99.90
16767;DHT22;8501;49.926;8.404;2024-01-30T05:19:35;1.00;99.90
16767;DHT22;8501;49.926;8.404;2024-01-30T05:22:01;1.00;99.90
16767;DHT22;8501;49.926;8.404;2024-01-30T05:24:26;0.90;99.90
16767;DHT22;8501;49.926;8.404;2024-01-30T05:26:52;0.90;99.90
16767;DHT22;8501;49.926;8.404;2024-01-30T05:29:18;0.80;99.90
16767;DHT22;8501;49.926;8.404;2024-01-30T05:31:43;0.80;99.90
16767;DHT22;8501;49.926;8.404;2024-01-30T05:34:09;0.90;99.90
16767;DHT22;8501;49.926;8.404;2024-01-30T05:36:35;1.00;99.90
16767;DHT22;8501;49.926;8.404;2024-01-30T05:39:00;1.10;99.90
16767;DHT22;8501;49.926;8.404;2024-01-30T05:41:26;1.10;99.90
16767;DHT22;8501;49.926;8.404;2024-01-30T05:43:52;1.10;99.90
16767;DHT22;8501;49.926;8.404;2024-01-30T05:46:17;1.10;99.90
16767;DHT22;8501;49.926;8.404;2024-01-30T05:48:43;1.10;99.90
16767;DHT22;8501;49.926;8.404;2024-01-30T05:51:08;1.20;99.90
16767;DHT22;8501;49.926;8.404;2024-01-30T05:53:34;1.20;99.90
16767;DHT22;8501;49.926;8.404;2024-01-30T05:56:03;1.10;99.90
16767;DHT22;8501;49.926;8.404;2024-01-30T05:58:29;1.00;99.90
16767;DHT22;8501;49.926;8.404;2024-01-30T06:00:56;0.90;99.90
16767;DHT22;8501;49.926;8.404;2024-01-30T06:03:22;0.90;99.90
16767;DHT22;8501;49.926;8.404;2024-01-30T06:05:48;0.80;99.90
16767;DHT22;8501;49.926;8.404;2024-01-30T06:08:13;0.80;99.90
16767;DHT22;8501;49.926;8.404;2024-01-30T06:10:39;0.80;99.90
16767;DHT22;8501;49.926;8.404;2024-01-30T06:13:05;0.80;99.90
16767;DHT22;8501;49.926;8.404;2024-01-30T06:15:31;0.90;99.90
16767;DHT22;8501;49.926;8.404;2024-01-30T06:17:58;0.90;99.90
16767;DHT22;8501;49.926;8.404;2024-01-30T06:20:24;1.00;99.90
16767;DHT22;8501;49.926;8.404;2024-01-30T06:22:49;0.90;99.90
16767;DHT22;8501;49.926;8.404;2024-01-30T06:25:15;0.90;99.90
16767;DHT22;8501;49.926;8.404;2024-01-30T06:27:42;0.90;99.90
16767;DHT22;8501;49.926;8.404;2024-01-30T06:30:08;0.90;99.90
16767;DHT22;8501;49.926;8.404;2024-01-30T06:32:34;0.90;99.90
16767;DHT22;8501;49.926;8.404;2024-01-30T06:35:01;0.90;99.90
16767;DHT22;8501;49.926;8.404;2024-01-30T06:37:27;0.90;99.90
16767;DHT22;8501;49.926;8.404;2024-01-30T06:39:52;0.90;99.90
16767;DHT22;8501;49.926;8.404;2024-01-30T06:42:18;0.90;99.90
16767;DHT22;8501;49.926;8.404;2024-01-30T06:44:44;1.00;99.90
16767;DHT22;8501;49.926;8.404;2024-01-30T06:47:10;0.90;99.90
16767;DHT22;8501;49.926;8.404;2024-01-30T06:49:35;0.80;99.90
16767;DHT22;8501;49.926;8.404;2024-01-30T06:52:05;0.80;99.90
16767;DHT22;8501;49.926;8.404;2024-01-30T06:54:31;0.90;99.90
16767;DHT22;8501;49.926;8.404;2024-01-30T06:56:58;0.80;99.90
16767;DHT22;8501;49.926;8.404;2024-01-30T06:59:24;0.80;99.90
16767;DHT22;8501;49.926;8.404;2024-01-30T07:01:49;0.80;99.90
16767;DHT22;8501;49.926;8.404;2024-01-30T07:04:15;0.70;99.90
16767;DHT22;8501;49.926;8.404;2024-01-30T07:06:41;0.70;99.90
16767;DHT22;8501;49.926;8.404;2024-01-30T07:09:07;0.60;99.90
16767;DHT22;8501;49.926;8.404;2024-01-30T07:11:32;0.50;99.90
16767;DHT22;8501;49.926;8.404;2024-01-30T07:13:58;0.50;99.90
16767;DHT22;8501;49.926;8.404;2024-01-30T07:16:23;0.60;99.90
16767;DHT22;8501;49.926;8.404;2024-01-30T07:18:49;0.60;99.90
16767;DHT22;8501;49.926;8.404;2024-01-30T07:21:15;0.60;99.90
16767;DHT22;8501;49.926;8.404;2024-01-30T07:23:41;0.60;99.90
16767;DHT22;8501;49.926;8.404;2024-01-30T07:26:08;0.70;99.90
16767;DHT22;8501;49.926;8.404;2024-01-30T07:28:34;0.70;99.90
16767;DHT22;8501;49.926;8.404;2024-01-30T07:31:00;0.70;99.90
16767;DHT22;8501;49.926;8.404;2024-01-30T07:33:26;0.80;99.90
16767;DHT22;8501;49.926;8.404;2024-01-30T07:35:52;0.80;99.90
16767;DHT22;8501;49.926;8.404;2024-01-30T07:38:18;0.70;99.90
16767;DHT22;8501;49.926;8.404;2024-01-30T07:40:44;0.70;99.90
16767;DHT22;8501;49.926;8.404;2024-01-30T07:43:09;0.80;99.90
16767;DHT22;8501;49.926;8.404;2024-01-30T07:45:35;0.80;99.90
16767;DHT22;8501;49.926;8.404;2024-01-30T07:48:02;0.80;99.90
16767;DHT22;8501;49.926;8.404;2024-01-30T07:50:28;0.90;99.90
16767;DHT22;8501;49.926;8.404;2024-01-30T07:52:56;1.00;99.90
16767;DHT22;8501;49.926;8.404;2024-01-30T07:55:22;0.90;99.90
16767;DHT22;8501;49.926;8.404;2024-01-30T07:57:51;0.90;99.90
16767;DHT22;8501;49.926;8.404;2024-01-30T08:00:18;0.80;99.90
16767;DHT22;8501;49.926;8.404;2024-01-30T08:02:43;0.90;99.90
16767;DHT22;8501;49.926;8.404;2024-01-30T08:05:09;0.80;99.90
16767;DHT22;8501;49.926;8.404;2024-01-30T08:07:36;0.80;99.90
16767;DHT22;8501;49.926;8.404;2024-01-30T08:10:02;0.80;99.90
16767;DHT22;8501;49.926;8.404;2024-01-30T08:12:28;0.90;99.90
16767;DHT22;8501;49.926;8.404;2024-01-30T08:14:53;0.90;99.90
16767;DHT22;8501;49.926;8.404;2024-01-30T08:17:19;1.00;99.90
16767;DHT22;8501;49.926;8.404;2024-01-30T08:19:44;1.00;99.90
16767;DHT22;8501;49.926;8.404;2024-01-30T08:22:11;1.00;99.90
16767;DHT22;8501;49.926;8.404;2024-01-30T08:24:36;1.10;99.90
16767;DHT22;8501;49.926;8.404;2024-01-30T08:27:02;1.10;99.90
16767;DHT22;8501;49.926;8.404;2024-01-30T08:29:28;1.20;99.90
16767;DHT22;8501;49.926;8.404;2024-01-30T08:31:53;1.30;99.90
16767;DHT22;8501;49.926;8.404;2024-01-30T08:34:21;1.30;99.90
16767;DHT22;8501;49.926;8.404;2024-01-30T08:36:46;1.30;99.90
16767;DHT22;8501;49.926;8.404;2024-01-30T08:39:12;1.30;99.90
16767;DHT22;8501;49.926;8.404;2024-01-30T08:41:37;1.30;99.90
16767;DHT22;8501;49.926;8.404;2024-01-30T08:44:03;1.40;99.90
16767;DHT22;8501;49.926;8.404;2024-01-30T08:46:29;1.50;99.90
16767;DHT22;8501;49.926;8.404;2024-01-30T08:48:56;1.50;99.90
16767;DHT22;8501;49.926;8.404;2024-01-30T08:51:21;1.60;99.90
16767;DHT22;8501;49.926;8.404;2024-01-30T08:53:47;1.60;99.90
16767;DHT22;8501;49.926;8.404;2024-01-30T08:56:13;1.60;99.90
16767;DHT22;8501;49.926;8.404;2024-01-30T08:58:39;1.60;99.90
16767;DHT22;8501;49.926;8.404;2024-01-30T09:01:05;1.60;99.90
16767;DHT22;8501;49.926;8.404;2024-01-30T09:03:31;1.70;99.90
16767;DHT22;8501;49.926;8.404;2024-01-30T09:05:57;1.70;99.90
16767;DHT22;8501;49.926;8.404;2024-01-30T09:08:22;1.70;99.90
16767;DHT22;8501;49.926;8.404;2024-01-30T09:10:48;1.80;99.90
16767;DHT22;8501;49.926;8.404;2024-01-30T09:13:15;1.80;99.90
16767;DHT22;8501;49.926;8.404;2024-01-30T09:15:41;1.80;99.90
16767;DHT22;8501;49.926;8.404;2024-01-30T09:18:06;1.90;99.90
16767;DHT22;8501;49.926;8.404;2024-01-30T09:20:32;1.90;99.90
16767;DHT22;8501;49.926;8.404;2024-01-30T09:22:57;1.90;99.90
16767;DHT22;8501;49.926;8.404;2024-01-30T09:25:23;1.90;99.90
16767;DHT22;8501;49.926;8.404;2024-01-30T09:27:48;2.00;99.90
16767;DHT22;8501;49.926;8.404;2024-01-30T09:30:14;2.00;99.90
16767;DHT22;8501;49.926;8.404;2024-01-30T09:32:40;2.00;99.90
16767;DHT22;8501;49.926;8.404;2024-01-30T09:35:06;2.10;99.90
16767;DHT22;8501;49.926;8.404;2024-01-30T09:37:31;2.10;99.90
16767;DHT22;8501;49.926;8.404;2024-01-30T09:39:57;2.20;99.90
16767;DHT22;8501;49.926;8.404;2024-01-30T09:42:36;2.20;99.90
16767;DHT22;8501;49.926;8.404;2024-01-30T09:45:03;2.30;99.90
16767;DHT22;8501;49.926;8.404;2024-01-30T09:47:32;2.40;99.90
16767;DHT22;8501;49.926;8.404;2024-01-30T09:49:58;2.40;99.90
16767;DHT22;8501;49.926;8.404;2024-01-30T09:52:24;2.40;99.90
16767;DHT22;8501;49.926;8.404;2024-01-30T09:54:51;2.50;99.90
16767;DHT22;8501;49.926;8.404;2024-01-30T09:57:17;2.50;99.90
16767;DHT22;8501;49.926;8.404;2024-01-30T09:59:43;2.60;99.90
16767;DHT22;8501;49.926;8.404;2024-01-30T10:02:10;2.60;99.90
16767;DHT22;8501;49.926;8.404;2024-01-30T10:04:37;2.70;99.90
16767;DHT22;8501;49.926;8.404;2024-01-30T10:07:04;2.70;99.90
16767;DHT22;8501;49.926;8.404;2024-01-30T10:09:32;2.80;99.90
16767;DHT22;8501;49.926;8.404;2024-01-30T10:11:58;2.80;99.90
16767;DHT22;8501;49.926;8.404;2024-01-30T10:14:24;2.80;99.90
16767;DHT22;8501;49.926;8.404;2024-01-30T10:16:50;2.80;99.90
16767;DHT22;8501;49.926;8.404;2024-01-30T10:19:16;2.80;99.90
16767;DHT22;8501;49.926;8.404;2024-01-30T10:21:41;2.90;99.90
16767;DHT22;8501;49.926;8.404;2024-01-30T10:24:07;2.90;99.90
16767;DHT22;8501;49.926;8.404;2024-01-30T10:26:32;2.90;99.90
16767;DHT22;8501;49.926;8.404;2024-01-30T10:28:59;3.00;99.90
16767;DHT22;8501;49.926;8.404;2024-01-30T10:31:25;3.10;99.90
16767;DHT22;8501;49.926;8.404;2024-01-30T10:33:51;3.10;99.90
16767;DHT22;8501;49.926;8.404;2024-01-30T10:36:17;3.20;99.90
16767;DHT22;8501;49.926;8.404;2024-01-30T10:38:43;3.20;99.90
16767;DHT22;8501;49.926;8.404;2024-01-30T10:41:13;3.30;99.90
16767;DHT22;8501;49.926;8.404;2024-01-30T10:43:50;3.40;99.90
16767;DHT22;8501;49.926;8.404;2024-01-30T10:46:25;3.40;99.90
16767;DHT22;8501;49.926;8.404;2024-01-30T10:48:58;3.50;99.90
16767;DHT22;8501;49.926;8.404;2024-01-30T10:51:27;3.50;99.90
16767;DHT22;8501;49.926;8.404;2024-01-30T10:53:53;3.60;99.90
16767;DHT22;8501;49.926;8.404;2024-01-30T10:56:22;3.60;99.90
16767;DHT22;8501;49.926;8.404;2024-01-30T10:58:50;3.80;99.90
16767;DHT22;8501;49.926;8.404;2024-01-30T11:01:25;3.80;99.90
16767;DHT22;8501;49.926;8.404;2024-01-30T11:03:52;3.80;99.90
16767;DHT22;8501;49.926;8.404;2024-01-30T11:06:18;3.90;99.90
16767;DHT22;8501;49.926;8.404;2024-01-30T11:09:02;3.90;99.90
16767;DHT22;8501;49.926;8.404;2024-01-30T11:11:57;3.90;99.90
16767;DHT22;8501;49.926;8.404;2024-01-30T11:14:29;4.00;99.90
16767;DHT22;8501;49.926;8.404;2024-01-30T11:16:58;4.00;99.90
16767;DHT22;8501;49.926;8.404;2024-01-30T11:19:30;4.10;99.90
16767;DHT22;8501;49.926;8.404;2024-01-30T11:21:56;4.10;99.90
16767;DHT22;8501;49.926;8.404;2024-01-30T11:24:24;4.20;99.90
16767;DHT22;8501;49.926;8.404;2024-01-30T11:26:56;4.20;99.90
16767;DHT22;8501;49.926;8.404;2024-01-30T11:29:29;4.20;99.90
16767;DHT22;8501;49.926;8.404;2024-01-30T11:31:56;4.30;99.90
16767;DHT22;8501;49.926;8.404;2024-01-30T11:34:22;4.40;99.90
16767;DHT22;8501;49.926;8.404;2024-01-30T11:36:55;4.40;99.90
16767;DHT22;8501;49.926;8.404;2024-01-30T11:39:27;4.50;99.90
16767;DHT22;8501;49.926;8.404;2024-01-30T11:41:55;4.40;99.90
16767;DHT22;8501;49.926;8.404;2024-01-30T11:44:21;4.50;99.90
16767;DHT22;8501;49.926;8.404;2024-01-30T11:46:51;4.50;99.90
16767;DHT22;8501;49.926;8.404;2024-01-30T11:49:17;4.60;99.90
16767;DHT22;8501;49.926;8.404;2024-01-30T11:51:45;4.60;99.90
16767;DHT22;8501;49.926;8.404;2024-01-30T11:54:11;4.60;99.90
16767;DHT22;8501;49.926;8.404;2024-01-30T11:56:37;4.70;99.90
16767;DHT22;8501;49.926;8.404;2024-01-30T11:59:04;4.70;99.90
16767;DHT22;8501;49.926;8.404;2024-01-30T12:01:30;4.80;99.90
16767;DHT22;8501;49.926;8.404;2024-01-30T12:03:57;4.80;99.90
16767;DHT22;8501;49.926;8.404;2024-01-30T12:06:23;4.90;99.90
16767;DHT22;8501;49.926;8.404;2024-01-30T12:09:02;5.00;99.90
16767;DHT22;8501;49.926;8.404;2024-01-30T12:11:31;5.00;99.90
16767;DHT22;8501;49.926;8.404;2024-01-30T12:13:56;5.10;99.90
16767;DHT22;8501;49.926;8.404;2024-01-30T12:16:22;5.10;99.90
16767;DHT22;8501;49.926;8.404;2024-01-30T12:18:48;5.20;99.90
16767;DHT22;8501;49.926;8.404;2024-01-30T12:21:16;5.30;99.90
16767;DHT22;8501;49.926;8.404;2024-01-30T12:23:43;5.30;99.90
16767;DHT22;8501;49.926;8.404;2024-01-30T12:26:08;5.30;99.90
16767;DHT22;8501;49.926;8.404;2024-01-30T12:28:35;5.30;99.90
16767;DHT22;8501;49.926;8.404;2024-01-30T12:31:03;5.30;99.90
16767;DHT22;8501;49.926;8.404;2024-01-30T12:33:30;5.40;99.90
16767;DHT22;8501;49.926;8.404;2024-01-30T12:35:57;5.50;99.90
16767;DHT22;8501;49.926;8.404;2024-01-30T12:38:24;5.50;99.90
16767;DHT22;8501;49.926;8.404;2024-01-30T12:40:54;5.60;99.90
16767;DHT22;8501;49.926;8.404;2024-01-30T12:43:20;5.60;99.90
16767;DHT22;8501;49.926;8.404;2024-01-30T12:45:47;5.70;99.90
16767;DHT22;8501;49.926;8.404;2024-01-30T12:48:12;5.70;99.90
16767;DHT22;8501;49.926;8.404;2024-01-30T12:50:38;5.70;99.90
16767;DHT22;8501;49.926;8.404;2024-01-30T12:53:03;5.80;99.90
16767;DHT22;8501;49.926;8.404;2024-01-30T12:55:30;5.80;99.90
16767;DHT22;8501;49.926;8.404;2024-01-30T12:57:55;5.90;99.90
16767;DHT22;8501;49.926;8.404;2024-01-30T13:00:21;5.90;99.90
16767;DHT22;8501;49.926;8.404;2024-01-30T13:02:48;5.90;99.90
16767;DHT22;8501;49.926;8.404;2024-01-30T13:05:13;5.90;99.90
16767;DHT22;8501;49.926;8.404;2024-01-30T13:07:39;6.00;99.90
16767;DHT22;8501;49.926;8.404;2024-01-30T13:10:05;6.00;99.90
16767;DHT22;8501;49.926;8.404;2024-01-30T13:12:31;6.10;99.90
16767;DHT22;8501;49.926;8.404;2024-01-30T13:15:01;6.10;99.90
16767;DHT22;8501;49.926;8.404;2024-01-30T13:17:27;6.20;99.90
16767;DHT22;8501;49.926;8.404;2024-01-30T13:19:53;6.20;99.90
16767;DHT22;8501;49.926;8.404;2024-01-30T13:22:19;6.20;99.90
16767;DHT22;8501;49.926;8.404;2024-01-30T13:24:47;6.20;99.90
16767;DHT22;8501;49.926;8.404;2024-01-30T13:27:12;6.20;99.90
16767;DHT22;8501;49.926;8.404;2024-01-30T13:29:38;6.30;99.90
16767;DHT22;8501;49.926;8.404;2024-01-30T13:32:04;6.30;99.90
16767;DHT22;8501;49.926;8.404;2024-01-30T13:34:29;6.40;99.90
16767;DHT22;8501;49.926;8.404;2024-01-30T13:36:55;6.40;99.90
16767;DHT22;8501;49.926;8.404;2024-01-30T13:39:20;6.40;99.90
16767;DHT22;8501;49.926;8.404;2024-01-30T13:41:46;6.50;99.90
16767;DHT22;8501;49.926;8.404;2024-01-30T13:44:13;6.50;99.90
16767;DHT22;8501;49.926;8.404;2024-01-30T13:46:41;6.50;99.90
16767;DHT22;8501;49.926;8.404;2024-01-30T13:49:06;6.60;99.90
16767;DHT22;8501;49.926;8.404;2024-01-30T13:51:32;6.60;99.90
16767;DHT22;8501;49.926;8.404;2024-01-30T13:53:58;6.60;99.90
16767;DHT22;8501;49.926;8.404;2024-01-30T13:56:23;6.60;99.90
16767;DHT22;8501;49.926;8.404;2024-01-30T13:58:50;6.60;99.90
16767;DHT22;8501;49.926;8.404;2024-01-30T14:01:16;6.60;99.90
16767;DHT22;8501;49.926;8.404;2024-01-30T14:03:41;6.60;99.90
16767;DHT22;8501;49.926;8.404;2024-01-30T14:06:07;6.70;99.90
16767;DHT22;8501;49.926;8.404;2024-01-30T14:08:33;6.70;99.90
16767;DHT22;8501;49.926;8.404;2024-01-30T14:10:58;6.70;99.90
16767;DHT22;8501;49.926;8.404;2024-01-30T14:13:24;6.70;99.90
16767;DHT22;8501;49.926;8.404;2024-01-30T14:15:51;6.70;99.90
16767;DHT22;8501;49.926;8.404;2024-01-30T14:18:16;6.80;99.90
16767;DHT22;8501;49.926;8.404;2024-01-30T14:20:42;6.80;99.90
16767;DHT22;8501;49.926;8.404;2024-01-30T14:23:08;6.80;99.90
16767;DHT22;8501;49.926;8.404;2024-01-30T14:25:33;6.80;99.90
16767;DHT22;8501;49.926;8.404;2024-01-30T14:27:59;6.90;99.90
16767;DHT22;8501;49.926;8.404;2024-01-30T14:30:24;6.90;99.90
16767;DHT22;8501;49.926;8.404;2024-01-30T14:32:50;6.90;99.90
16767;DHT22;8501;49.926;8.404;2024-01-30T14:35:16;6.90;99.90
16767;DHT22;8501;49.926;8.404;2024-01-30T14:37:41;6.90;99.90
16767;DHT22;8501;49.926;8.404;2024-01-30T14:40:07;6.90;99.90
16767;DHT22;8501;49.926;8.404;2024-01-30T14:42:33;6.90;99.90
16767;DHT22;8501;49.926;8.404;2024-01-30T14:44:59;6.90;99.90
16767;DHT22;8501;49.926;8.404;2024-01-30T14:47:25;7.00;99.90
16767;DHT22;8501;49.926;8.404;2024-01-30T14:49:51;6.90;99.90
16767;DHT22;8501;49.926;8.404;2024-01-30T14:52:17;7.00;99.90
16767;DHT22;8501;49.926;8.404;2024-01-30T14:54:43;7.00;99.90
16767;DHT22;8501;49.926;8.404;2024-01-30T14:57:09;7.00;99.90
16767;DHT22;8501;49.926;8.404;2024-01-30T14:59:35;7.00;99.90
16767;DHT22;8501;49.926;8.404;2024-01-30T15:02:00;7.00;99.90
16767;DHT22;8501;49.926;8.404;2024-01-30T15:04:26;7.00;99.90
16767;DHT22;8501;49.926;8.404;2024-01-30T15:06:51;7.00;99.90
16767;DHT22;8501;49.926;8.404;2024-01-30T15:09:17;7.00;99.90
16767;DHT22;8501;49.926;8.404;2024-01-30T15:11:44;7.00;99.90
16767;DHT22;8501;49.926;8.404;2024-01-30T15:14:10;7.00;99.90
16767;DHT22;8501;49.926;8.404;2024-01-30T15:16:36;7.00;99.90
16767;DHT22;8501;49.926;8.404;2024-01-30T15:19:02;6.90;99.90
16767;DHT22;8501;49.926;8.404;2024-01-30T15:21:30;6.90;99.90
16767;DHT22;8501;49.926;8.404;2024-01-30T15:23:56;7.00;99.90
16767;DHT22;8501;49.926;8.404;2024-01-30T15:26:21;7.00;99.90
16767;DHT22;8501;49.926;8.404;2024-01-30T15:28:47;7.00;99.90
16767;DHT22;8501;49.926;8.404;2024-01-30T15:31:13;6.90;99.90
16767;DHT22;8501;49.926;8.404;2024-01-30T15:33:38;6.90;99.90
16767;DHT22;8501;49.926;8.404;2024-01-30T15:36:04;6.90;99.90
16767;DHT22;8501;49.926;8.404;2024-01-30T15:38:30;6.90;99.90
16767;DHT22;8501;49.926;8.404;2024-01-30T15:40:56;6.90;99.90
16767;DHT22;8501;49.926;8.404;2024-01-30T15:43:22;6.90;99.90
16767;DHT22;8501;49.926;8.404;2024-01-30T15:45:49;6.90;99.90
16767;DHT22;8501;49.926;8.404;2024-01-30T15:48:16;6.90;99.90
16767;DHT22;8501;49.926;8.404;2024-01-30T15:50:41;6.90;99.90
16767;DHT22;8501;49.926;8.404;2024-01-30T15:53:07;6.90;99.90
16767;DHT22;8501;49.926;8.404;2024-01-30T15:55:32;6.80;99.90